Time;durP1;ratioP1;P1;durP2;ratioP2;P2;SDS_P1;SDS_P2;PMS_P1;PMS_P2;Temp;Humidity;BMP_temperature;BMP_pressure;BME280_temperature;BME280_humidity;BME280_pressure;Samples;Min_cycle;Max_cycle;Signal;HPM_P1;HPM_P2
2023/04/15 00:01:11;;;;;;;41.63;20.83;;;5.50;99.90;;;;;;5107464;28;20055;-55
2023/04/15 00:03:38;;;;;;;37.30;20.23;;;5.60;99.90;;;;;;5108261;28;20047;-57
2023/04/15 00:06:07;;;;;;;43.22;20.15;;;;;;;;;;5102762;28;20510;-57
2023/04/15 00:08:34;;;;;;;40.55;20.77;;;5.60;99.90;;;;;;5095458;28;20050;-57
2023/04/15 00:11:04;;;;;;;37.67;21.15;;;5.60;99.90;;;;;;5108060;28;20047;-58
2023/04/15 00:13:33;;;;;;;42.05;21.67;;;5.60;99.90;;;;;;5107757;28;20056;-59
2023/04/15 00:16:01;;;;;;;44.00;22.25;;;5.60;99.90;;;;;;5107280;28;20050;-57
2023/04/15 00:18:30;;;;;;;48.35;23.23;;;5.60;99.90;;;;;;5108312;28;20051;-57
2023/04/15 00:20:58;;;;;;;52.80;23.83;;;5.50;99.90;;;;;;5108387;28;20394;-56
2023/04/15 00:23:26;;;;;;;45.95;23.02;;;5.50;99.90;;;;;;5108268;28;20047;-57
2023/04/15 00:25:54;;;;;;;44.08;23.42;;;5.50;99.90;;;;;;5108248;28;20063;-57
2023/04/15 00:28:22;;;;;;;49.90;22.90;;;5.50;99.90;;;;;;5103365;28;20062;-58
2023/04/15 00:30:50;;;;;;;53.75;22.95;;;5.50;99.90;;;;;;5108354;28;20050;-56
2023/04/15 00:33:17;;;;;;;52.38;23.63;;;5.50;99.90;;;;;;5106754;28;20527;-56
2023/04/15 00:35:46;;;;;;;51.15;23.48;;;5.50;99.90;;;;;;5090164;28;20403;-57
2023/04/15 00:38:14;;;;;;;62.85;24.23;;;5.50;99.90;;;;;;5107979;28;20044;-58
2023/04/15 00:40:42;;;;;;;48.90;22.08;;;5.40;99.90;;;;;;5090226;28;20039;-57
2023/04/15 00:43:10;;;;;;;51.00;23.58;;;5.50;99.90;;;;;;5107632;28;20043;-58
2023/04/15 00:45:38;;;;;;;49.67;22.55;;;5.50;99.90;;;;;;5089766;28;20048;-58
2023/04/15 00:48:08;;;;;;;51.55;22.80;;;5.50;99.90;;;;;;5109880;28;20040;-58
2023/04/15 00:50:36;;;;;;;55.08;24.75;;;;;;;;;;5077599;28;20063;-58
2023/04/15 00:53:03;;;;;;;52.22;23.23;;;5.50;99.90;;;;;;5094069;28;20052;-57
2023/04/15 00:55:31;;;;;;;55.25;23.60;;;5.50;99.90;;;;;;5093866;28;20032;-58
2023/04/15 00:57:59;;;;;;;54.85;23.40;;;5.50;99.90;;;;;;5111414;28;20535;-58
2023/04/15 01:00:26;;;;;;;54.25;24.05;;;5.50;99.90;;;;;;5093526;28;20482;-59
2023/04/15 01:02:54;;;;;;;52.95;23.17;;;5.60;99.90;;;;;;5108938;28;20056;-57
2023/04/15 01:05:22;;;;;;;53.70;24.60;;;5.60;99.90;;;;;;5107420;28;20048;-59
2023/04/15 01:07:50;;;;;;;58.78;25.60;;;6.80;99.90;;;;;;5092383;28;20043;-57
2023/04/15 01:10:17;;;;;;;64.15;26.83;;;5.70;99.90;;;;;;5109241;28;20051;-57
2023/04/15 01:12:45;;;;;;;49.50;22.90;;;5.70;99.90;;;;;;5087924;28;20063;-58
2023/04/15 01:15:13;;;;;;;56.50;23.77;;;5.70;99.90;;;;;;5108153;28;20050;-57
2023/04/15 01:17:41;;;;;;;59.60;25.10;;;5.70;99.90;;;;;;5111561;28;20242;-56
2023/04/15 01:20:10;;;;;;;60.65;26.30;;;5.70;99.90;;;;;;5081597;28;20051;-55
2023/04/15 01:22:39;;;;;;;68.47;27.40;;;5.70;99.90;;;;;;5090831;28;20055;-56
2023/04/15 01:25:13;;;;;;;66.35;26.80;;;5.70;99.90;;;;;;5091386;28;20043;-56
2023/04/15 01:27:42;;;;;;;62.22;26.05;;;5.70;99.90;;;;;;5095592;28;20036;-57
2023/04/15 01:30:10;;;;;;;61.92;24.50;;;5.80;99.90;;;;;;5110535;28;20407;-57
2023/04/15 01:32:38;;;;;;;64.25;25.83;;;5.80;99.90;;;;;;5111706;28;20044;-58
2023/04/15 01:35:24;;;;;;;64.82;24.52;;;5.80;99.90;;;;;;5109181;28;20627;-57
2023/04/15 01:37:53;;;;;;;62.63;25.98;;;5.80;99.90;;;;;;5076971;28;20063;-58
2023/04/15 01:40:21;;;;;;;63.85;25.38;;;5.80;99.90;;;;;;5094141;28;20044;-57
2023/04/15 01:42:50;;;;;;;67.55;26.08;;;5.80;99.90;;;;;;5087415;28;20056;-56
2023/04/15 01:45:19;;;;;;;57.73;24.27;;;5.80;99.90;;;;;;5073732;28;20057;-57
2023/04/15 01:47:51;;;;;;;57.30;24.50;;;5.70;99.90;;;;;;5092403;28;20044;-58
2023/04/15 01:50:20;;;;;;;61.28;25.50;;;5.50;99.90;;;;;;5092409;28;20062;-58
2023/04/15 01:52:49;;;;;;;56.28;23.27;;;5.70;99.90;;;;;;5093548;28;20056;-60
2023/04/15 01:55:20;;;;;;;65.13;25.23;;;;;;;;;;5091163;28;20056;-58
2023/04/15 01:57:48;;;;;;;60.50;25.55;;;5.60;99.90;;;;;;5106767;28;20055;-56
2023/04/15 02:00:17;;;;;;;61.85;23.98;;;5.60;99.90;;;;;;5084454;28;20051;-57
2023/04/15 02:02:46;;;;;;;62.33;24.80;;;5.60;99.90;;;;;;5073039;28;20044;-55
2023/04/15 02:05:15;;;;;;;60.77;26.10;;;5.50;99.90;;;;;;5071121;28;20510;-56
2023/04/15 02:07:49;;;;;;;57.63;24.00;;;5.50;99.90;;;;;;5088279;28;20048;-57
2023/04/15 02:10:18;;;;;;;;;;;5.40;99.90;;;;;;5085080;28;20048;-56
2023/04/15 02:12:46;;;;;;;55.15;23.52;;;5.30;99.90;;;;;;5093445;28;19920;-57
2023/04/15 02:15:16;;;;;;;45.25;20.48;;;5.40;99.90;;;;;;5092093;28;20044;-57
2023/04/15 02:17:49;;;;;;;53.92;24.13;;;5.30;99.90;;;;;;5092778;28;20044;-56
2023/04/15 02:20:20;;;;;;;50.88;23.15;;;5.20;99.90;;;;;;5091274;28;20373;-56
2023/04/15 02:22:49;;;;;;;49.97;21.38;;;5.10;99.90;;;;;;5091349;28;20388;-57
2023/04/15 02:25:19;;;;;;;53.17;23.55;;;5.10;99.90;;;;;;5091808;28;20059;-55
2023/04/15 02:27:48;;;;;;;46.67;22.60;;;5.00;99.90;;;;;;5091300;28;20062;-56
2023/04/15 02:30:17;;;;;;;;;;;4.90;99.90;;;;;;5092963;28;20044;-55
2023/04/15 02:32:47;;;;;;;50.13;20.90;;;4.80;99.90;;;;;;5092520;28;19920;-56
2023/04/15 02:35:18;;;;;;;52.42;21.75;;;4.80;99.90;;;;;;5083446;28;20044;-56
2023/04/15 02:37:47;;;;;;;46.97;22.02;;;4.80;99.90;;;;;;5092530;28;20713;-56
2023/04/15 02:40:16;;;;;;;49.88;22.35;;;4.80;99.90;;;;;;5074781;28;20423;-57
2023/04/15 02:42:46;;;;;;;55.08;22.80;;;4.80;99.90;;;;;;5077917;28;20051;-56
2023/04/15 02:45:19;;;;;;;53.88;24.23;;;4.80;99.90;;;;;;5094822;28;20052;-56
2023/04/15 02:47:51;;;;;;;55.92;23.45;;;4.80;99.90;;;;;;5094513;28;20044;-58
2023/04/15 02:50:22;;;;;;;;;;;4.70;99.90;;;;;;5103749;28;20047;-57
2023/04/15 02:52:53;;;;;;;57.13;24.88;;;4.70;99.90;;;;;;5074660;28;19920;-57
2023/04/15 02:55:22;;;;;;;60.35;26.45;;;4.80;99.90;;;;;;5074526;28;20062;-57
2023/04/15 02:57:51;;;;;;;66.00;26.20;;;4.80;99.90;;;;;;5091782;28;20047;-55
2023/04/15 03:00:20;;;;;;;61.90;27.05;;;4.80;99.90;;;;;;5090729;28;20048;-56
2023/04/15 03:02:55;;;;;;;59.13;24.83;;;4.80;99.90;;;;;;5073446;28;20060;-56
2023/04/15 03:05:24;;;;;;;54.13;25.55;;;4.80;99.90;;;;;;5091533;28;20392;-57
2023/04/15 03:07:54;;;;;;;62.15;24.95;;;4.80;99.90;;;;;;5093624;28;20048;-57
2023/04/15 03:10:22;;;;;;;63.03;24.27;;;4.80;99.90;;;;;;5110053;28;20054;-57
2023/04/15 03:12:51;;;;;;;61.17;26.27;;;4.70;99.90;;;;;;5091156;28;20051;-57
2023/04/15 03:15:22;;;;;;;66.88;26.08;;;4.70;99.90;;;;;;5083449;28;20071;-57
2023/04/15 03:17:53;;;;;;;51.08;21.83;;;4.70;99.90;;;;;;5093752;28;20051;-59
2023/04/15 03:20:22;;;;;;;59.33;24.17;;;4.60;99.90;;;;;;5077073;28;20056;-57
2023/04/15 03:22:52;;;;;;;60.88;24.33;;;4.50;99.90;;;;;;5111698;28;20063;-56
2023/04/15 03:25:25;;;;;;;63.75;24.58;;;4.40;99.90;;;;;;5094352;28;20058;-55
2023/04/15 03:27:54;;;;;;;65.80;23.90;;;4.30;99.90;;;;;;5111759;28;20052;-58
2023/04/15 03:30:23;;;;;;;58.45;22.17;;;4.30;99.90;;;;;;5110327;28;20069;-58
2023/04/15 03:32:52;;;;;;;58.10;24.52;;;4.20;99.90;;;;;;5110374;28;20071;-58
2023/04/15 03:35:21;;;;;;;62.55;25.52;;;4.10;99.90;;;;;;5111324;28;20051;-57
2023/04/15 03:37:55;;;;;;;72.55;27.08;;;4.10;99.90;;;;;;5111390;28;20040;-58
2023/04/15 03:40:25;;;;;;;68.80;25.85;;;4.10;99.90;;;;;;5111150;28;20063;-57
2023/04/15 03:42:56;;;;;;;56.35;24.33;;;4.10;99.90;;;;;;5111042;28;20047;-57
2023/04/15 03:45:25;;;;;;;71.05;27.15;;;4.10;99.90;;;;;;5109292;28;20051;-59
2023/04/15 03:47:54;;;;;;;73.43;25.13;;;4.00;99.90;;;;;;5111396;28;20044;-58
2023/04/15 03:50:23;;;;;;;69.82;24.50;;;4.10;99.90;;;;;;5103327;28;20059;-59
2023/04/15 03:52:52;;;;;;;78.18;23.23;;;4.10;99.90;;;;;;5090942;28;20044;-59
2023/04/15 03:55:21;;;;;;;92.47;25.35;;;4.10;99.90;;;;;;5091327;28;20051;-57
2023/04/15 03:57:50;;;;;;;78.88;24.25;;;4.20;99.90;;;;;;5091099;28;20040;-58
2023/04/15 04:00:19;;;;;;;101.10;26.20;;;4.20;99.90;;;;;;5091882;28;20052;-57
2023/04/15 04:02:48;;;;;;;102.05;26.02;;;4.30;99.90;;;;;;5111640;28;20047;-58
2023/04/15 04:05:17;;;;;;;95.53;24.92;;;4.30;99.90;;;;;;5109292;28;20037;-57
2023/04/15 04:07:46;;;;;;;99.77;24.43;;;4.40;99.90;;;;;;5073003;28;20059;-59
2023/04/15 04:10:15;;;;;;;102.80;23.65;;;4.40;99.90;;;;;;5090500;28;20040;-57
2023/04/15 04:12:44;;;;;;;91.75;24.38;;;4.40;99.90;;;;;;5090864;28;20063;-58
2023/04/15 04:15:13;;;;;;;92.35;23.52;;;4.40;99.90;;;;;;5091081;28;20051;-58
2023/04/15 04:17:42;;;;;;;103.73;24.83;;;4.40;99.90;;;;;;5109663;28;20394;-59
2023/04/15 04:20:11;;;;;;;74.97;23.93;;;4.40;99.90;;;;;;5111560;28;20299;-59
2023/04/15 04:22:40;;;;;;;121.55;25.58;;;4.40;99.90;;;;;;5113862;28;20050;-58
2023/04/15 04:25:10;;;;;;;72.53;21.70;;;4.40;99.90;;;;;;5115561;28;20040;-58
2023/04/15 04:27:38;;;;;;;98.20;20.95;;;4.40;99.90;;;;;;5113762;28;20059;-58
2023/04/15 04:30:07;;;;;;;91.97;22.10;;;4.40;99.90;;;;;;5115311;28;20040;-57
2023/04/15 04:32:37;;;;;;;80.68;22.45;;;4.40;99.90;;;;;;5115091;28;20051;-58
2023/04/15 04:35:06;;;;;;;74.15;22.35;;;4.40;99.90;;;;;;5115350;28;20047;-57
2023/04/15 04:37:35;;;;;;;70.57;21.42;;;4.40;99.90;;;;;;5114607;28;20055;-56
2023/04/15 04:40:04;;;;;;;71.45;19.42;;;4.30;99.90;;;;;;5096881;28;20056;-56
2023/04/15 04:42:33;;;;;;;97.78;20.30;;;4.30;99.90;;;;;;5114823;28;20043;-55
2023/04/15 04:45:02;;;;;;;84.63;21.87;;;4.20;99.90;;;;;;5113774;28;20040;-56
2023/04/15 04:47:31;;;;;;;100.00;21.23;;;4.10;99.90;;;;;;5105050;28;20051;-56
2023/04/15 04:50:00;;;;;;;69.47;19.45;;;4.10;99.90;;;;;;5090629;28;20309;-57
2023/04/15 04:52:29;;;;;;;57.53;18.77;;;4.10;99.90;;;;;;5090816;28;20055;-56
2023/04/15 04:55:01;;;;;;;57.25;17.67;;;4.00;99.90;;;;;;5091065;28;20051;-57
2023/04/15 04:57:30;;;;;;;51.53;18.55;;;3.90;99.90;;;;;;5095278;28;20047;-57
2023/04/15 04:59:59;;;;;;;79.83;19.20;;;3.90;99.90;;;;;;5097839;28;20052;-57
2023/04/15 05:02:28;;;;;;;54.67;19.73;;;3.80;99.90;;;;;;5096291;28;20052;-58
2023/04/15 05:04:57;;;;;;;79.17;18.77;;;3.90;99.90;;;;;;5099860;28;20625;-59
2023/04/15 05:07:26;;;;;;;68.20;19.07;;;3.80;99.90;;;;;;5091398;28;20284;-57
2023/04/15 05:09:55;;;;;;;136.63;21.17;;;3.80;99.90;;;;;;5107953;28;20047;-56
2023/04/15 05:12:24;;;;;;;138.60;20.27;;;3.70;99.90;;;;;;5110420;28;20296;-56
2023/04/15 05:14:53;;;;;;;113.80;19.93;;;3.80;99.90;;;;;;5110877;28;20648;-57
2023/04/15 05:17:22;;;;;;;182.50;19.02;;;3.70;99.90;;;;;;5109508;28;20487;-58
2023/04/15 05:19:52;;;;;;;157.57;20.63;;;3.70;99.90;;;;;;5102896;28;20052;-56
2023/04/15 05:22:21;;;;;;;127.20;18.23;;;3.60;99.90;;;;;;5110662;28;20070;-56
2023/04/15 05:24:50;;;;;;;129.77;16.20;;;3.60;99.90;;;;;;5110895;28;20475;-56
2023/04/15 05:27:19;;;;;;;134.32;17.48;;;3.60;99.90;;;;;;5108434;28;20137;-56
2023/04/15 05:29:48;;;;;;;98.93;14.60;;;3.50;99.90;;;;;;5106907;28;20047;-56
2023/04/15 05:32:17;;;;;;;41.60;13.53;;;3.50;99.90;;;;;;5104293;28;20055;-57
2023/04/15 05:34:46;;;;;;;36.13;13.52;;;3.50;99.90;;;;;;5108071;28;20039;-57
2023/04/15 05:37:15;;;;;;;85.68;18.23;;;3.40;99.90;;;;;;5105339;28;20070;-56
2023/04/15 05:39:44;;;;;;;69.63;15.40;;;3.40;99.90;;;;;;5107038;28;20402;-57
2023/04/15 05:42:13;;;;;;;50.22;14.73;;;3.30;99.90;;;;;;5109322;28;20928;-57
2023/04/15 05:44:42;;;;;;;55.17;14.73;;;3.20;99.90;;;;;;5109872;28;20046;-57
2023/04/15 05:47:11;;;;;;;64.47;16.03;;;3.20;99.90;;;;;;5091901;28;20059;-58
2023/04/15 05:49:40;;;;;;;53.03;14.68;;;;;;;;;;5109850;28;20058;-58
2023/04/15 05:52:09;;;;;;;62.47;14.63;;;3.20;99.90;;;;;;5107311;28;20051;-56
2023/04/15 05:54:38;;;;;;;54.75;15.18;;;3.10;99.90;;;;;;5105962;28;20051;-56
2023/04/15 05:57:07;;;;;;;35.03;13.57;;;3.10;99.90;;;;;;5108823;28;20052;-56
2023/04/15 05:59:37;;;;;;;46.65;13.95;;;3.10;99.90;;;;;;5081388;28;20277;-57
2023/04/15 06:02:06;;;;;;;;;;;3.10;99.90;;;;;;5091200;28;20059;-56
2023/04/15 06:04:35;;;;;;;28.00;12.60;;;3.10;99.90;;;;;;5109182;28;19931;-56
2023/04/15 06:07:05;;;;;;;41.63;14.55;;;3.10;99.90;;;;;;5109241;28;20054;-57
2023/04/15 06:09:34;;;;;;;39.58;13.80;;;3.10;99.90;;;;;;5109365;28;20039;-58
2023/04/15 06:12:03;;;;;;;32.15;13.60;;;3.10;99.90;;;;;;5090992;28;20059;-57
2023/04/15 06:14:32;;;;;;;38.15;14.70;;;3.10;99.90;;;;;;5109806;28;20047;-58
2023/04/15 06:17:01;;;;;;;29.30;14.30;;;3.10;99.90;;;;;;5109280;28;20062;-57
2023/04/15 06:19:30;;;;;;;82.53;15.60;;;3.10;99.90;;;;;;5106473;28;20058;-57
2023/04/15 06:22:00;;;;;;;64.60;15.27;;;3.10;99.90;;;;;;5109375;28;20303;-58
2023/04/15 06:24:30;;;;;;;34.75;14.93;;;3.10;99.90;;;;;;5102174;28;20048;-58
2023/04/15 06:26:59;;;;;;;35.55;13.05;;;3.10;99.90;;;;;;5108747;28;20055;-58
2023/04/15 06:29:28;;;;;;;38.33;14.80;;;3.10;99.90;;;;;;5108394;28;20521;-59
2023/04/15 06:31:57;;;;;;;43.88;15.25;;;3.10;99.90;;;;;;5106583;28;20399;-58
2023/04/15 06:34:26;;;;;;;;;;;3.20;99.90;;;;;;5105553;28;20059;-56
2023/04/15 06:36:56;;;;;;;42.00;15.52;;;3.20;99.90;;;;;;5089492;28;19920;-58
2023/04/15 06:39:25;;;;;;;46.80;16.88;;;3.30;99.90;;;;;;5089180;28;20044;-59
2023/04/15 06:41:55;;;;;;;41.83;16.45;;;3.30;99.90;;;;;;5088710;28;20044;-61
2023/04/15 06:44:24;;;;;;;47.75;17.17;;;3.30;99.90;;;;;;5099666;28;20044;-57
2023/04/15 06:46:56;;;;;;;42.58;16.92;;;3.30;99.90;;;;;;5109053;28;20063;-58
2023/04/15 06:49:25;;;;;;;40.57;16.20;;;3.40;99.90;;;;;;5108832;28;20044;-59
2023/04/15 06:51:54;;;;;;;43.30;16.33;;;3.50;99.90;;;;;;5088571;28;20054;-58
2023/04/15 06:54:25;;;;;;;39.55;16.02;;;3.60;99.90;;;;;;5087615;28;20364;-59
2023/04/15 06:56:54;;;;;;;50.83;18.33;;;3.70;99.90;;;;;;5107166;28;20051;-59
2023/04/15 06:59:23;;;;;;;54.22;18.52;;;3.70;99.90;;;;;;5107219;28;20397;-57
2023/04/15 07:01:51;;;;;;;50.22;16.27;;;3.80;99.90;;;;;;5107325;28;20057;-56
2023/04/15 07:04:21;;;;;;;42.13;15.25;;;3.80;99.90;;;;;;5105496;28;20056;-56
2023/04/15 07:06:50;;;;;;;37.38;16.67;;;3.90;99.90;;;;;;5106464;28;20071;-57
2023/04/15 07:09:21;;;;;;;44.40;16.55;;;3.80;99.90;;;;;;5108201;28;20039;-58
2023/04/15 07:11:50;;;;;;;48.63;15.35;;;3.90;99.90;;;;;;5106253;28;20048;-60
2023/04/15 07:14:19;;;;;;;40.20;15.07;;;3.90;99.90;;;;;;5104618;28;20361;-56
2023/04/15 07:16:49;;;;;;;42.20;15.65;;;4.00;99.90;;;;;;5082185;28;20047;-57
2023/04/15 07:19:18;;;;;;;38.50;15.50;;;4.10;99.90;;;;;;5092798;28;20040;-56
2023/04/15 07:21:47;;;;;;;36.17;14.20;;;4.10;99.90;;;;;;5105783;28;20048;-57
2023/04/15 07:24:17;;;;;;;39.50;14.20;;;4.30;99.90;;;;;;5107793;28;20487;-57
2023/04/15 07:26:46;;;;;;;37.45;14.32;;;4.30;99.90;;;;;;5108094;28;20040;-56
2023/04/15 07:29:16;;;;;;;30.27;12.07;;;4.40;99.90;;;;;;5089888;28;20521;-55
2023/04/15 07:31:45;;;;;;;33.80;12.85;;;4.50;99.90;;;;;;5088827;28;20047;-56
2023/04/15 07:34:14;;;;;;;31.10;12.75;;;4.50;99.90;;;;;;5108236;28;20039;-56
2023/04/15 07:36:43;;;;;;;27.02;12.55;;;4.70;99.90;;;;;;5107725;28;20680;-56
2023/04/15 07:39:12;;;;;;;26.13;11.67;;;4.70;99.90;;;;;;5107726;28;20062;-56
2023/04/15 07:41:40;;;;;;;23.25;11.27;;;4.80;99.90;;;;;;5107886;28;20479;-57
2023/04/15 07:44:10;;;;;;;23.33;10.63;;;4.90;99.90;;;;;;5107681;28;20474;-56
2023/04/15 07:46:39;;;;;;;23.40;10.95;;;5.00;99.90;;;;;;5106727;28;20414;-56
2023/04/15 07:49:08;;;;;;;20.95;10.38;;;5.10;99.90;;;;;;5104146;28;20072;-55
2023/04/15 07:51:37;;;;;;;22.83;9.68;;;5.20;99.90;;;;;;5107928;28;20059;-57
2023/04/15 07:54:06;;;;;;;22.35;9.63;;;5.20;99.90;;;;;;5071563;28;20048;-57
2023/04/15 07:56:35;;;;;;;19.58;8.43;;;5.40;99.90;;;;;;5086858;28;20048;-56
2023/04/15 07:59:05;;;;;;;21.10;9.60;;;5.40;99.90;;;;;;5089380;28;20089;-55
2023/04/15 08:01:33;;;;;;;;;;;5.50;99.90;;;;;;5088004;28;20376;-57
2023/04/15 08:04:02;;;;;;;16.58;8.35;;;5.60;99.90;;;;;;5104680;28;19920;-57
2023/04/15 08:06:32;;;;;;;21.65;9.75;;;5.70;99.90;;;;;;5107516;28;20067;-56
2023/04/15 08:09:01;;;;;;;20.52;8.77;;;5.70;99.90;;;;;;5106347;28;20051;-57
2023/04/15 08:11:30;;;;;;;21.67;9.88;;;5.80;99.90;;;;;;5087680;28;20052;-57
2023/04/15 08:13:59;;;;;;;22.83;8.55;;;5.80;99.90;;;;;;5104073;28;20043;-57
2023/04/15 08:16:28;;;;;;;18.10;8.88;;;5.90;99.90;;;;;;5107430;28;20051;-56
2023/04/15 08:18:57;;;;;;;19.27;7.60;;;6.00;99.90;;;;;;5096976;28;20052;-57
2023/04/15 08:21:26;;;;;;;15.27;6.88;;;6.10;99.90;;;;;;5107446;28;20052;-56
2023/04/15 08:23:59;;;;;;;16.63;7.90;;;6.10;99.90;;;;;;5101235;28;20414;-56
2023/04/15 08:26:28;;;;;;;13.43;6.70;;;6.30;99.90;;;;;;5105692;28;20047;-56
2023/04/15 08:28:57;;;;;;;12.93;7.57;;;6.30;99.90;;;;;;5106730;28;20054;-57
2023/04/15 08:31:29;;;;;;;13.52;7.10;;;6.40;99.90;;;;;;5107321;28;20051;-56
2023/04/15 08:33:59;;;;;;;14.20;6.25;;;6.40;99.90;;;;;;5106945;28;20059;-56
2023/04/15 08:36:28;;;;;;;13.80;7.05;;;6.50;99.90;;;;;;5106055;28;20058;-55
2023/04/15 08:38:57;;;;;;;10.18;5.80;;;6.60;99.90;;;;;;5089189;28;20059;-57
2023/04/15 08:41:36;;;;;;;11.63;5.95;;;6.60;99.90;;;;;;5107560;28;20048;-57
2023/04/15 08:44:05;;;;;;;10.45;6.15;;;6.70;99.90;;;;;;5107241;28;20055;-58
2023/04/15 08:46:36;;;;;;;11.77;6.78;;;6.80;99.90;;;;;;5107398;28;20055;-56
2023/04/15 08:49:09;;;;;;;11.82;6.25;;;6.90;99.90;;;;;;5089033;28;20051;-57
2023/04/15 08:51:39;;;;;;;13.57;7.40;;;7.00;99.90;;;;;;5086744;28;20048;-56
2023/04/15 08:54:09;;;;;;;11.07;6.65;;;7.10;99.90;;;;;;5093940;28;20048;-56
2023/04/15 08:56:38;;;;;;;11.45;7.03;;;7.20;99.90;;;;;;5086849;28;20067;-56
2023/04/15 08:59:08;;;;;;;10.57;6.57;;;7.20;99.90;;;;;;5091606;28;20040;-56
2023/04/15 09:01:37;;;;;;;12.10;6.10;;;7.30;99.90;;;;;;5086659;28;20044;-55
2023/04/15 09:04:06;;;;;;;10.10;5.77;;;7.30;99.90;;;;;;5103938;28;20066;-56
2023/04/15 09:06:36;;;;;;;11.40;5.28;;;7.40;99.90;;;;;;5106594;28;20054;-56
2023/04/15 09:09:05;;;;;;;8.63;4.77;;;7.50;99.90;;;;;;5108429;28;20047;-56
2023/04/15 09:11:34;;;;;;;7.80;4.93;;;7.60;99.90;;;;;;5111133;28;20971;-56
2023/04/15 09:14:03;;;;;;;9.23;5.07;;;7.80;99.90;;;;;;5093050;28;20044;-56
2023/04/15 09:16:55;;;;;;;6.45;4.40;;;11.30;99.90;;;;;;5111052;28;20043;-56
2023/04/15 09:19:25;;;;;;;6.80;4.28;;;7.90;99.90;;;;;;5108550;28;20052;-56
2023/04/15 09:21:57;;;;;;;6.90;4.55;;;8.00;99.90;;;;;;5090693;28;20407;-56
2023/04/15 09:24:37;;;;;;;8.65;4.22;;;8.20;99.90;;;;;;5094091;28;20066;-56
2023/04/15 09:27:07;;;;;;;8.47;4.67;;;8.30;99.90;;;;;;5111427;28;20574;-56
2023/04/15 09:29:36;;;;;;;5.97;4.05;;;8.30;99.90;;;;;;5110350;28;20058;-58
2023/04/15 09:32:12;;;;;;;8.82;3.95;;;8.50;99.90;;;;;;5111140;28;20048;-57
2023/04/15 09:34:42;;;;;;;6.03;4.30;;;8.60;99.90;;;;;;5082059;28;20048;-60
2023/04/15 09:37:12;;;;;;;5.30;3.67;;;9.00;99.90;;;;;;5110750;28;20040;-58
2023/04/15 09:39:56;;;;;;;6.43;3.85;;;9.00;99.90;;;;;;5110175;28;20059;-57
2023/04/15 09:42:27;;;;;;;7.38;3.88;;;9.30;99.90;;;;;;5109838;28;20039;-58
2023/04/15 09:45:07;;;;;;;5.65;3.80;;;9.70;99.90;;;;;;5106941;28;20048;-58
2023/04/15 09:47:36;;;;;;;5.68;3.65;;;9.70;99.90;;;;;;5107320;28;20364;-58
2023/04/15 09:50:06;;;;;;;6.37;4.03;;;9.90;99.90;;;;;;5109667;28;20560;-57
2023/04/15 09:52:42;;;;;;;5.68;3.60;;;10.00;99.90;;;;;;5110709;28;20051;-57
2023/04/15 09:55:12;;;;;;;5.75;4.03;;;10.10;99.90;;;;;;5108982;28;20058;-56
2023/04/15 09:57:43;;;;;;;6.82;3.85;;;10.10;99.90;;;;;;5108930;28;20550;-57
2023/04/15 10:00:12;;;;;;;6.93;3.53;;;10.30;99.90;;;;;;5110137;28;20052;-56
2023/04/15 10:02:42;;;;;;;5.85;3.92;;;10.20;99.90;;;;;;5105953;28;20302;-56
2023/04/15 10:05:14;;;;;;;7.82;3.50;;;10.20;99.90;;;;;;5100105;28;20054;-56
2023/04/15 10:07:44;;;;;;;4.65;3.28;;;10.30;99.90;;;;;;5109044;28;20499;-56
2023/04/15 10:10:14;;;;;;;5.78;3.10;;;10.30;99.90;;;;;;5107813;28;20483;-56
2023/04/15 10:12:43;;;;;;;4.18;2.92;;;10.30;99.90;;;;;;5076920;28;20608;-57
2023/04/15 10:15:16;;;;;;;5.68;3.47;;;10.30;99.90;;;;;;5089422;28;20052;-57
2023/04/15 10:17:49;;;;;;;3.13;2.40;;;10.50;99.90;;;;;;5107848;28;20047;-55
2023/04/15 10:20:19;;;;;;;3.83;3.03;;;10.60;99.90;;;;;;5090527;28;20051;-55
2023/04/15 10:22:50;;;;;;;4.93;3.00;;;10.70;99.90;;;;;;5109615;28;20048;-56
2023/04/15 10:25:20;;;;;;;3.58;2.65;;;10.80;99.90;;;;;;5094510;28;20063;-57
2023/04/15 10:27:51;;;;;;;4.18;2.88;;;10.90;99.90;;;;;;5094349;28;20048;-57
2023/04/15 10:30:23;;;;;;;7.35;2.42;;;11.00;99.90;;;;;;5109067;28;20491;-58
2023/04/15 10:32:53;;;;;;;6.22;2.65;;;11.10;99.90;;;;;;5109222;28;20054;-58
2023/04/15 10:35:22;;;;;;;4.18;2.70;;;11.10;99.90;;;;;;5108547;28;20059;-57
2023/04/15 10:37:51;;;;;;;4.55;2.47;;;11.10;99.90;;;;;;5091266;28;20389;-57
2023/04/15 10:40:26;;;;;;;4.03;2.65;;;11.30;99.90;;;;;;5109240;28;20047;-57
2023/04/15 10:42:56;;;;;;;4.13;2.90;;;11.30;99.90;;;;;;5108802;28;20633;-57
2023/04/15 10:45:34;;;;;;;3.17;2.40;;;11.40;99.90;;;;;;5096283;28;20048;-56
2023/04/15 10:48:06;;;;;;;4.88;2.70;;;11.40;99.90;;;;;;5079572;28;20043;-57
2023/04/15 10:50:54;;;;;;;5.22;3.25;;;11.50;99.90;;;;;;5108550;28;20074;-57
2023/04/15 10:53:28;;;;;;;3.90;2.50;;;11.40;99.90;;;;;;5105283;28;20040;-58
2023/04/15 10:55:57;;;;;;;3.58;2.70;;;11.40;99.90;;;;;;5108709;28;20498;-56
2023/04/15 10:58:43;;;;;;;6.03;4.03;;;11.40;99.90;;;;;;5105562;28;20399;-56
2023/04/15 11:01:12;;;;;;;8.77;5.60;;;11.50;99.90;;;;;;5088852;28;20059;-56
2023/04/15 11:03:42;;;;;;;9.90;6.53;;;11.50;99.90;;;;;;5094522;28;20044;-55
2023/04/15 11:06:11;;;;;;;7.93;5.28;;;11.40;99.90;;;;;;5095344;28;20040;-59
2023/04/15 11:09:02;;;;;;;7.22;5.15;;;11.50;99.90;;;;;;5108591;28;20055;-58
2023/04/15 11:12:08;;;;;;;6.97;4.22;;;11.60;99.90;;;;;;5108853;28;20047;-59
2023/04/15 11:14:42;;;;;;;9.23;4.90;;;11.70;99.90;;;;;;5088513;28;20040;-58
2023/04/15 11:17:11;;;;;;;10.85;5.13;;;11.70;99.90;;;;;;5101025;28;20054;-57
2023/04/15 11:19:40;;;;;;;7.50;4.57;;;11.80;99.90;;;;;;5109244;28;20044;-57
2023/04/15 11:22:09;;;;;;;11.57;5.80;;;11.80;99.90;;;;;;5107873;28;20074;-56
2023/04/15 11:24:50;;;;;;;8.23;5.38;;;11.70;99.90;;;;;;5108753;28;20490;-57
2023/04/15 11:27:22;;;;;;;6.18;4.75;;;11.70;99.90;;;;;;5107592;28;20059;-57
2023/04/15 11:29:52;;;;;;;7.00;5.20;;;11.60;99.90;;;;;;5108499;28;20044;-56
2023/04/15 11:32:20;;;;;;;7.50;4.72;;;11.50;99.90;;;;;;5104316;28;20061;-56
2023/04/15 11:34:51;;;;;;;5.35;4.35;;;11.50;99.90;;;;;;5068541;28;20048;-55
2023/04/15 11:37:26;;;;;;;;;;;11.50;99.90;;;;;;5102781;28;20047;-56
2023/04/15 11:39:55;;;;;;;6.45;4.72;;;11.50;99.90;;;;;;5108293;28;20307;-56
2023/04/15 11:42:24;;;;;;;4.78;3.97;;;11.50;99.90;;;;;;5107616;28;20525;-57
2023/04/15 11:45:14;;;;;;;6.05;4.53;;;11.50;99.90;;;;;;5107574;28;20411;-56
2023/04/15 11:47:43;;;;;;;5.60;3.70;;;11.70;99.90;;;;;;5107210;28;20059;-57
2023/04/15 11:50:16;;;;;;;7.03;4.82;;;11.90;99.90;;;;;;5106956;28;20395;-57
2023/04/15 11:53:01;;;;;;;5.60;4.03;;;12.40;99.90;;;;;;5108049;28;20486;-55
2023/04/15 11:55:29;;;;;;;6.55;4.05;;;12.40;99.90;;;;;;5108897;28;20044;-58
2023/04/15 11:58:16;;;;;;;5.00;3.65;;;12.70;99.90;;;;;;5108246;28;20067;-58
2023/04/15 12:00:53;;;;;;;6.07;3.40;;;13.10;99.90;;;;;;5098228;28;20055;-59
2023/04/15 12:03:29;;;;;;;3.40;2.80;;;13.30;99.90;;;;;;5098134;28;20046;-59
2023/04/15 12:06:18;;;;;;;5.43;2.80;;;13.50;99.90;;;;;;5096388;28;20048;-59
2023/04/15 12:08:59;;;;;;;5.28;3.17;;;13.70;99.90;;;;;;5101003;28;20054;-59
2023/04/15 12:11:31;;;;;;;5.65;3.47;;;13.80;99.90;;;;;;5090795;28;20059;-58
2023/04/15 12:14:11;;;;;;;3.45;2.50;;;13.80;99.90;;;;;;5108487;28;20043;-56
2023/04/15 12:16:41;;;;;;;3.00;2.55;;;13.90;99.90;;;;;;5108319;28;20036;-57
2023/04/15 12:19:21;;;;;;;4.25;3.17;;;14.00;99.90;;;;;;5100791;28;20040;-58
2023/04/15 12:21:49;;;;;;;3.90;2.70;;;14.10;99.90;;;;;;5105255;28;20411;-56
2023/04/15 12:24:21;;;;;;;3.83;3.08;;;14.30;99.90;;;;;;5090057;28;20045;-58
2023/04/15 12:26:55;;;;;;;4.32;2.78;;;14.40;99.90;;;;;;5070475;28;20047;-57
2023/04/15 12:29:28;;;;;;;4.30;2.40;;;14.70;99.90;;;;;;5071752;28;20043;-57
2023/04/15 12:32:07;;;;;;;4.03;2.60;;;14.70;99.90;;;;;;5108396;28;20040;-57
2023/04/15 12:34:37;;;;;;;3.67;2.53;;;14.90;99.90;;;;;;5088071;28;20044;-57
2023/04/15 12:37:08;;;;;;;3.35;2.40;;;15.20;99.90;;;;;;5070668;28;20044;-59
2023/04/15 12:39:37;;;;;;;;;;;15.80;99.90;;;;;;5105559;28;20052;-59
2023/04/15 12:42:05;;;;;;;4.03;2.45;;;16.10;99.90;;;;;;5108017;28;19927;-58
2023/04/15 12:44:34;;;;;;;5.13;2.78;;;16.00;99.90;;;;;;5111931;28;20047;-56
2023/04/15 12:47:02;;;;;;;4.00;2.15;;;15.90;99.90;;;;;;5093789;28;20059;-57
2023/04/15 12:49:31;;;;;;;3.28;2.00;;;15.70;99.90;;;;;;5111859;28;20043;-58
2023/04/15 12:52:01;;;;;;;3.30;2.35;;;15.50;99.90;;;;;;5110699;28;20059;-57
2023/04/15 12:54:30;;;;;;;2.83;2.33;;;15.30;99.90;;;;;;5112048;28;20048;-57
2023/04/15 12:56:58;;;;;;;5.90;2.45;;;15.20;99.90;;;;;;5110979;28;20055;-56
2023/04/15 12:59:27;;;;;;;3.50;1.73;;;15.00;99.90;;;;;;5110280;28;20059;-56
2023/04/15 13:01:55;;;;;;;4.03;2.10;;;14.80;99.90;;;;;;5101818;28;20055;-56